Attività con fini culturali e ricreativi - Codice Fiscale 91122750689  

I bollettini meteorologici codificati usati in aviazione sono chiamati METAR. Contengono in ordine: la località, l'orario dell'osservazione, il vento, la visibilità, la copertura nuvolosa con eventuali fenomeni significativi, la temperatura, il punto di rugiada e la pressione atmosferica.    Scopri come leggerli...
Si riportano di seguito le ultime 90 osservazioni meteorologiche effettuate dall'aeroporto di Pescara.

LIBP 270050Z AUTO 27010KT 230V300 9999 OVC180/// 22/07 Q1009
LIBP 262350Z AUTO 05004KT 020V080 9999 OVC200/// 20/08 Q1010
LIBP 262250Z AUTO VRB02KT 9999 OVC200/// 21/08 Q1010
LIBP 262150Z AUTO 24012KT 9999 SCT130/// BKN210/// 21/08 Q1011
LIBP 262050Z 18009KT CAVOK 22/07 Q1011
LIBP 262010Z 21015G25KT 9999 FEW080 22/07 Q1010
LIBP 261950Z 23014KT 9999 FEW080 23/06 Q1010
LIBP 261850Z 14004KT 090V180 9999 FEW080 23/05 Q1010
LIBP 261750Z 25010KT 9999 SCT080 24/05 Q1009
LIBP 261650Z 23007KT 200V260 9999 SCT090 25/05 Q1008
LIBP 261550Z 21012KT 9999 SCT080 26/06 Q1008
LIBP 261450Z 21012KT 9999 SCT080 27/07 Q1008
LIBP 261350Z 22014KT 9999 FEW090 27/05 Q1008
LIBP 261250Z 23015G25KT CAVOK 28/03 Q1008 RMK WS R22
LIBP 261150Z 11010KT CAVOK 24/06 Q1009
LIBP 261050Z 10011KT CAVOK 25/03 Q1009
LIBP 260950Z 14009KT CAVOK 23/04 Q1010
LIBP 260850Z 15010KT 110V180 CAVOK 24/05 Q1010
LIBP 260750Z 03007KT CAVOK 18/11 Q1011
LIBP 260650Z 03007KT CAVOK 17/11 Q1011
LIBP 260550Z 07008KT 020V100 CAVOK 16/09 Q1011
LIBP 260450Z AUTO 22012KT 9999 NCD 18/01 Q1011
LIBP 260350Z AUTO 22011KT 9999 NCD 17/00 Q1010
LIBP 260250Z AUTO 22008KT 9999 NCD 17/M00 Q1011
LIBP 260150Z AUTO 22014KT 9999 NCD 18/M01 Q1011
LIBP 260050Z AUTO 21009KT 9999 NCD 15/04 Q1011
LIBP 252350Z AUTO VRB02KT 9999 NCD 09/07 Q1012
LIBP 252250Z AUTO 21005KT 9999 NCD 09/07 Q1013
LIBP 252150Z AUTO 23004KT 9999 NCD 10/07 Q1013
LIBP 252050Z 23005KT CAVOK 11/08 Q1013
LIBP 251950Z 22005KT CAVOK 13/09 Q1013
LIBP 251850Z 01002KT 9999 FEW060 15/09 Q1013
LIBP 251750Z 03005KT 360V070 9999 FEW060 16/10 Q1013
LIBP 251650Z 06008KT 9999 FEW060 18/11 Q1013
LIBP 251550Z 04010KT 9999 FEW080 18/12 Q1013
LIBP 251450Z 07009KT CAVOK 21/10 Q1013
LIBP 251350Z 10011KT 070V140 CAVOK 23/07 Q1013
LIBP 251250Z 09011KT CAVOK 22/08 Q1014
LIBP 251150Z 05011KT CAVOK 21/12 Q1014
LIBP 251050Z 07009KT 040V100 CAVOK 20/12 Q1015
LIBP 250950Z 06007KT CAVOK 20/11 Q1016
LIBP 250750Z VRB02KT CAVOK 18/10 Q1016
LIBP 250650Z VRB01KT CAVOK 14/11 Q1016
LIBP 250550Z 22003KT CAVOK 10/09 Q1016
LIBP 250450Z AUTO 22003KT 6000 NCD 08/07 Q1016
LIBP 250350Z AUTO 23004KT 8000 NCD 08/08 Q1016
LIBP 250250Z AUTO 20005KT 7000 NCD 08/07 Q1016
LIBP 250150Z AUTO 20003KT 130V220 8000 NCD 09/08 Q1016
LIBP 250050Z AUTO 21005KT 7000 NCD 09/08 Q1017
LIBP 242350Z AUTO 23004KT 6000 NCD 10/09 Q1017
LIBP 242250Z AUTO 24004KT 6000 NCD 11/10 Q1017
LIBP 242150Z AUTO 20004KT 9000 NCD 11/10 Q1017
LIBP 242119Z AUTO 21004KT 9000 FEW010/// 11/10 Q1018
LIBP 242050Z 22003KT 9999 FEW010 SCT050 12/11 Q1018
LIBP 241950Z VRB02KT 9999 FEW015 SCT040 14/12 Q1018
LIBP 241850Z VRB02KT 9999 FEW090 15/13 Q1018
LIBP 241750Z 07007KT 040V110 9999 SCT090 16/12 Q1018
LIBP 241650Z 04007KT 9999 FEW100 16/12 Q1018
LIBP 241550Z 07007KT 030V100 CAVOK 18/11 Q1018
LIBP 241450Z 08010KT 050V110 CAVOK 19/12 Q1018
LIBP 241350Z 07009KT 030V100 CAVOK 19/11 Q1018
LIBP 241250Z 07010KT 030V100 CAVOK 19/11 Q1019
LIBP 241150Z 07011KT 040V100 CAVOK 18/12 Q1019
LIBP 241050Z 08009KT CAVOK 18/10 Q1020
LIBP 240950Z 06009KT 030V090 CAVOK 18/10 Q1020
LIBP 240850Z 06007KT CAVOK 17/09 Q1020
LIBP 240750Z VRB02KT CAVOK 16/09 Q1020
LIBP 240650Z VRB02KT CAVOK 12/08 Q1021
LIBP 240550Z 21002KT 9999 FEW070 09/07 Q1021
LIBP 240450Z AUTO 21004KT 9999 BKN077/// 07/06 Q1020
LIBP 240350Z AUTO 20005KT 9999 OVC076/// 06/05 Q1020
LIBP 240250Z AUTO 22004KT 9999 NCD 06/05 Q1020
LIBP 240150Z AUTO 22003KT 9999 NCD 07/06 Q1020
LIBP 240050Z AUTO 20004KT 9999 NCD 08/07 Q1020
LIBP 232350Z AUTO 23004KT 9999 SCT077/// 09/07 Q1020
LIBP 232250Z AUTO 23005KT 9999 BKN078/// 08/07 Q1020
LIBP 232150Z AUTO 22004KT 9999 FEW081/// 09/07 Q1020
LIBP 232050Z VRB01KT CAVOK 11/08 Q1020
LIBP 231950Z VRB03KT CAVOK 13/08 Q1020
LIBP 231850Z 04003KT 010V070 CAVOK 14/08 Q1019
LIBP 231750Z 07003KT 030V100 CAVOK 15/08 Q1019
LIBP 231650Z 08006KT CAVOK 16/09 Q1018
LIBP 231550Z 07008KT 050V110 CAVOK 17/08 Q1018
LIBP 231450Z 09008KT 050V120 CAVOK 18/07 Q1018
LIBP 231350Z 09010KT 060V120 CAVOK 18/06 Q1018
LIBP 231250Z 08010KT 040V120 CAVOK 18/08 Q1018
LIBP 231150Z 08009KT 040V110 CAVOK 18/07 Q1018
LIBP 231050Z 09009KT 050V110 CAVOK 18/04 Q1018
LIBP 230950Z 07011KT CAVOK 18/08 Q1018
LIBP 230850Z 06009KT CAVOK 17/09 Q1018
LIBP 230750Z 02006KT 340V040 CAVOK 16/06 Q1017

Fonte: National Oceanic and Atmospheric Administration (NOAA)

Ultimi caricamenti...


MM81652 (PS-93) Polizia di Stato Agusta-Bell AB212

 


MM62275 (PS-B16) Polizia di Stato Piaggio P-180 Avanti

 


HB-ZDF McDonnell Douglas MD-900 Explorer

Questo sito non utilizza cookie di profilazione. Il sito utilizza cookie tecnici, di analisi anonima di prima parte e di terze parti per servizi di social network.